Val Verde, Texas
Current Conditions -  °F | °C
As of 3:55 PM on Monday 22 Dec 2014 (Local Time) from KT35 Reporting Station
Clear Clear  
Wind Chill: 73°   Ceiling: Unl
Heat Index: 73°   Visibility: 10mi
Dew Point: 47°   Wind: 8mph
Humidity: 40%   Direction: 250°WSW
Pressure: 29.59"   Gusts: NA
Location:  30.8953°N, 97.127°W
Report Text: KT35 222155Z AUTO 25007KT 10SM CLR 23/08 A2959 RMK AO2 T02270083
Loading
Personal Weather Stations






























Interactive Weather Map New forecast layout! Learn more

10-Day Weather Forecast

Advertisements
Track Severe Weather on mobile